createdAt,value
2017-04-26T00:00:28.115Z,0
2017-04-26T00:01:41.943Z,0
2017-04-26T00:02:56.180Z,0
2017-04-26T00:04:09.977Z,0
2017-04-26T00:05:24.000Z,0
2017-04-26T00:06:37.437Z,0
2017-04-26T00:07:51.237Z,0
2017-04-26T00:09:04.998Z,0
2017-04-26T00:10:19.516Z,0
2017-04-26T00:11:33.358Z,0
2017-04-26T00:12:46.925Z,0
2017-04-26T00:14:00.912Z,0
2017-04-26T00:15:15.856Z,0
2017-04-26T00:16:30.401Z,0
2017-04-26T00:17:44.518Z,0
2017-04-26T00:18:57.903Z,0
2017-04-26T00:20:11.532Z,0
2017-04-26T00:21:25.316Z,0
2017-04-26T00:22:39.358Z,0
2017-04-26T00:23:53.098Z,0
2017-04-26T00:25:06.655Z,0
2017-04-26T00:26:52.493Z,0
2017-04-26T00:28:06.145Z,0
2017-04-26T00:29:20.070Z,0
2017-04-26T00:30:34.302Z,0
2017-04-26T00:31:48.597Z,0
2017-04-26T00:33:02.074Z,0
2017-04-26T00:34:15.448Z,0
2017-04-26T00:35:29.352Z,0
2017-04-26T00:36:42.836Z,0
2017-04-26T00:37:56.389Z,0
2017-04-26T00:39:10.383Z,0
2017-04-26T00:40:23.949Z,0
2017-04-26T00:41:57.899Z,0
2017-04-26T00:43:11.403Z,0
2017-04-26T00:44:24.813Z,0
2017-04-26T00:45:38.681Z,0
2017-04-26T00:46:52.282Z,0
2017-04-26T00:48:06.383Z,0
2017-04-26T00:49:19.772Z,0
2017-04-26T00:50:33.358Z,0
2017-04-26T00:51:47.098Z,0
2017-04-26T00:53:00.605Z,0
2017-04-26T00:54:14.269Z,0
2017-04-26T00:55:27.809Z,0
2017-04-26T00:56:41.712Z,0
2017-04-26T00:57:55.239Z,0
2017-04-26T00:59:08.921Z,0
2017-04-26T01:00:22.742Z,0
2017-04-26T01:01:36.205Z,0
2017-04-26T01:02:49.926Z,0
2017-04-26T01:04:03.321Z,0
2017-04-26T01:05:16.842Z,0
2017-04-26T01:06:45.368Z,0
2017-04-26T01:07:58.876Z,0
2017-04-26T01:09:12.259Z,0
2017-04-26T01:10:25.785Z,0
2017-04-26T01:11:39.325Z,0
2017-04-26T01:12:53.121Z,0
2017-04-26T01:14:06.494Z,0
2017-04-26T01:15:20.382Z,0
2017-04-26T01:16:34.360Z,0
2017-04-26T01:17:47.988Z,0
2017-04-26T01:19:01.810Z,0
2017-04-26T01:20:15.566Z,0
2017-04-26T01:21:29.543Z,0
2017-04-26T01:22:43.112Z,0
2017-04-26T01:23:56.654Z,0
2017-04-26T01:25:10.517Z,0
2017-04-26T01:26:24.195Z,0
2017-04-26T01:27:37.795Z,0
2017-04-26T01:28:51.154Z,0
2017-04-26T01:30:04.653Z,0
2017-04-26T01:31:18.342Z,0
2017-04-26T01:32:32.010Z,0
2017-04-26T01:33:45.475Z,0
2017-04-26T01:34:59.252Z,0
2017-04-26T01:36:12.962Z,0
2017-04-26T01:37:26.733Z,0
2017-04-26T01:38:40.172Z,0
2017-04-26T01:39:53.642Z,0
2017-04-26T01:41:07.214Z,0
2017-04-26T01:42:20.733Z,0
2017-04-26T01:43:34.473Z,0
2017-04-26T01:44:47.969Z,0
2017-04-26T01:46:01.359Z,0
2017-04-26T01:47:15.299Z,0
2017-04-26T01:48:28.731Z,0
2017-04-26T01:49:42.535Z,0
2017-04-26T01:50:55.905Z,0
2017-04-26T01:52:09.386Z,0
2017-04-26T01:53:22.807Z,0
2017-04-26T01:54:36.704Z,0
2017-04-26T01:55:50.387Z,0
2017-04-26T01:57:03.859Z,0
2017-04-26T01:58:17.558Z,0
2017-04-26T01:59:31.162Z,0
2017-04-26T02:00:44.803Z,0
2017-04-26T02:01:59.377Z,0
2017-04-26T02:03:12.766Z,0
2017-04-26T02:04:27.139Z,0
2017-04-26T02:07:18.101Z,0
2017-04-26T02:08:31.610Z,0
2017-04-26T02:09:45.224Z,0
2017-04-26T02:10:58.717Z,0
2017-04-26T02:12:12.183Z,0
2017-04-26T02:13:25.997Z,0
2017-04-26T02:14:39.740Z,0
2017-04-26T02:15:53.847Z,0
2017-04-26T02:17:07.905Z,0
2017-04-26T02:18:21.410Z,0
2017-04-26T02:19:35.272Z,0
2017-04-26T02:20:49.123Z,0
2017-04-26T02:22:02.536Z,0
2017-04-26T02:23:16.013Z,0
2017-04-26T02:24:29.758Z,0
2017-04-26T02:25:43.564Z,0
2017-04-26T02:26:57.258Z,0
2017-04-26T02:28:46.241Z,0
2017-04-26T02:29:59.801Z,0
2017-04-26T02:31:13.287Z,0
2017-04-26T02:32:26.795Z,0
2017-04-26T02:33:40.197Z,0
2017-04-26T02:34:54.069Z,0
2017-04-26T02:36:07.835Z,0
2017-04-26T02:37:21.334Z,0
2017-04-26T02:38:34.745Z,0
2017-04-26T02:39:48.248Z,0
2017-04-26T02:41:02.451Z,0
2017-04-26T02:42:29.575Z,0
2017-04-26T02:43:43.027Z,0
2017-04-26T02:44:56.503Z,0
2017-04-26T02:46:09.956Z,0
2017-04-26T02:47:23.506Z,0
2017-04-26T02:48:36.884Z,0
2017-04-26T02:49:50.769Z,0
2017-04-26T02:51:04.591Z,0
2017-04-26T02:52:18.770Z,0
2017-04-26T02:53:32.160Z,0
2017-04-26T02:54:45.656Z,0
2017-04-26T02:55:59.039Z,0
2017-04-26T02:57:12.570Z,0
2017-04-26T02:58:26.444Z,0
2017-04-26T02:59:40.231Z,0
2017-04-26T03:00:54.537Z,0
2017-04-26T03:02:08.098Z,0
2017-04-26T03:03:21.504Z,0
2017-04-26T03:04:34.990Z,0
2017-04-26T03:05:48.395Z,0
2017-04-26T03:07:02.557Z,0
2017-04-26T03:08:16.277Z,0
2017-04-26T03:09:29.819Z,0
2017-04-26T03:10:43.200Z,0
2017-04-26T03:11:56.716Z,0
2017-04-26T03:13:10.790Z,0
2017-04-26T03:14:25.313Z,0
2017-04-26T03:15:39.042Z,0
2017-04-26T03:16:52.537Z,0
2017-04-26T03:18:06.050Z,0
2017-04-26T03:19:19.733Z,0
2017-04-26T03:20:33.163Z,0
2017-04-26T03:21:46.990Z,0
2017-04-26T03:23:00.411Z,0
2017-04-26T03:24:13.938Z,0
2017-04-26T03:25:27.314Z,0
2017-04-26T03:26:40.884Z,0
2017-04-26T03:27:54.745Z,0
2017-04-26T03:29:08.335Z,0
2017-04-26T03:30:21.752Z,0
2017-04-26T03:31:35.678Z,0
2017-04-26T03:32:49.178Z,0
2017-04-26T03:34:02.715Z,0
2017-04-26T03:35:16.102Z,0
2017-04-26T03:36:29.665Z,0
2017-04-26T03:37:43.403Z,0
2017-04-26T03:38:56.919Z,0
2017-04-26T03:40:10.513Z,0
2017-04-26T03:41:24.415Z,0
2017-04-26T03:42:37.807Z,0
2017-04-26T03:43:51.448Z,0
2017-04-26T03:45:05.397Z,0
2017-04-26T03:46:19.449Z,0
2017-04-26T03:47:32.898Z,0
2017-04-26T03:48:46.421Z,0
2017-04-26T03:50:00.555Z,0
2017-04-26T03:51:14.086Z,0
2017-04-26T03:52:27.503Z,0
2017-04-26T03:53:41.082Z,0
2017-04-26T03:54:54.569Z,0
2017-04-26T03:56:08.406Z,0
2017-04-26T03:57:21.799Z,0
2017-04-26T03:58:35.418Z,0
2017-04-26T03:59:48.882Z,0
2017-04-26T04:01:02.827Z,0
2017-04-26T04:02:16.273Z,0
2017-04-26T04:03:29.912Z,0
2017-04-26T04:04:43.486Z,0
2017-04-26T04:05:57.600Z,0
2017-04-26T04:07:11.383Z,0
2017-04-26T04:08:24.927Z,0
2017-04-26T04:09:38.706Z,0
2017-04-26T04:10:52.205Z,0
2017-04-26T04:12:06.312Z,0
2017-04-26T04:13:19.812Z,0
2017-04-26T04:14:33.529Z,0
2017-04-26T04:15:47.081Z,5
2017-04-26T04:17:00.556Z,5
2017-04-26T04:18:14.031Z,5
2017-04-26T04:19:27.653Z,5
2017-04-26T04:20:41.844Z,5
2017-04-26T04:21:55.338Z,5
2017-04-26T04:23:08.854Z,10
2017-04-26T04:24:22.297Z,10
2017-04-26T04:25:35.937Z,10
2017-04-26T04:26:49.320Z,10
2017-04-26T04:28:02.867Z,10
2017-04-26T04:29:16.259Z,15
2017-04-26T04:30:31.748Z,15
2017-04-26T04:31:48.721Z,15
2017-04-26T04:33:17.937Z,15
2017-04-26T04:34:31.652Z,15
2017-04-26T04:35:45.369Z,15
2017-04-26T04:36:58.969Z,15
2017-04-26T04:38:13.448Z,15
2017-04-26T04:39:27.540Z,15
2017-04-26T04:40:41.190Z,15
2017-04-26T04:41:55.850Z,15
2017-04-26T04:43:09.571Z,15
2017-04-26T04:44:22.993Z,20
2017-04-26T04:45:36.566Z,20
2017-04-26T04:46:49.953Z,20
2017-04-26T04:48:03.496Z,25
2017-04-26T04:49:17.196Z,25
2017-04-26T04:50:30.899Z,25
2017-04-26T04:51:44.605Z,25
2017-04-26T04:52:58.626Z,30
2017-04-26T04:54:12.682Z,30
2017-04-26T04:55:26.173Z,30
2017-04-26T04:56:39.734Z,35
2017-04-26T04:57:53.340Z,35
2017-04-26T04:59:07.531Z,35
2017-04-26T05:00:22.390Z,40
2017-04-26T05:01:35.906Z,40
2017-04-26T05:02:49.555Z,45
2017-04-26T05:04:03.858Z,50
2017-04-26T05:05:18.186Z,55
2017-04-26T05:06:31.584Z,60
2017-04-26T05:07:45.114Z,65
2017-04-26T05:08:58.676Z,65
2017-04-26T05:10:12.829Z,65
2017-04-26T05:11:26.286Z,65
2017-04-26T05:12:40.142Z,65
2017-04-26T05:13:53.847Z,70
2017-04-26T05:15:07.549Z,70
2017-04-26T05:16:20.969Z,75
2017-04-26T05:17:34.869Z,80
2017-04-26T05:18:48.266Z,85
2017-04-26T05:20:01.819Z,90
2017-04-26T05:21:15.248Z,95
2017-04-26T05:22:29.165Z,95
2017-04-26T05:23:42.611Z,95
2017-04-26T05:24:56.238Z,90
2017-04-26T05:26:09.654Z,90
2017-04-26T05:27:23.175Z,85
2017-04-26T05:28:36.934Z,85
2017-04-26T05:29:50.550Z,80
2017-04-26T05:31:04.263Z,80
2017-04-26T05:32:17.761Z,80
2017-04-26T05:33:31.166Z,85
2017-04-26T05:34:44.670Z,85
2017-04-26T05:35:58.135Z,85
2017-04-26T05:37:12.091Z,90
2017-04-26T05:38:26.292Z,95
2017-04-26T05:39:40.537Z,100
2017-04-26T05:40:54.022Z,105
2017-04-26T05:42:07.717Z,110
2017-04-26T05:43:21.428Z,115
2017-04-26T05:44:35.015Z,125
2017-04-26T05:45:48.487Z,130
2017-04-26T05:47:13.613Z,130
2017-04-26T05:48:27.094Z,130
2017-04-26T05:49:40.620Z,135
2017-04-26T05:50:54.073Z,140
2017-04-26T05:52:07.924Z,145
2017-04-26T05:53:21.312Z,145
2017-04-26T05:54:34.967Z,150
2017-04-26T05:55:48.374Z,150
2017-04-26T05:57:01.978Z,150
2017-04-26T05:58:16.044Z,145
2017-04-26T05:59:29.586Z,140
2017-04-26T06:00:43.022Z,140
2017-04-26T06:01:57.241Z,140
2017-04-26T06:03:10.680Z,140
2017-04-26T06:04:24.200Z,135
2017-04-26T06:05:37.653Z,135
2017-04-26T06:06:51.203Z,135
2017-04-26T06:08:04.660Z,135
2017-04-26T06:09:18.316Z,135
2017-04-26T06:10:31.811Z,135
2017-04-26T06:11:45.712Z,130
2017-04-26T06:12:59.292Z,125
2017-04-26T06:14:12.796Z,125
2017-04-26T06:15:27.423Z,120
2017-04-26T06:16:41.431Z,120
2017-04-26T06:17:55.368Z,120
2017-04-26T06:19:09.394Z,120
2017-04-26T06:20:22.887Z,120
2017-04-26T06:21:37.243Z,120
2017-04-26T06:22:51.111Z,115
2017-04-26T06:24:04.780Z,115
2017-04-26T06:25:18.305Z,115
2017-04-26T06:26:32.220Z,115
2017-04-26T06:27:45.800Z,120
2017-04-26T06:28:59.973Z,125
2017-04-26T06:30:13.449Z,130
2017-04-26T06:31:27.003Z,130
2017-04-26T06:32:40.453Z,135
2017-04-26T06:33:54.120Z,140
2017-04-26T06:35:07.579Z,145
2017-04-26T06:36:21.468Z,150
2017-04-26T06:37:35.251Z,150
2017-04-26T06:38:48.823Z,150
2017-04-26T06:40:02.577Z,155
2017-04-26T06:41:29.249Z,155
2017-04-26T06:42:42.637Z,155
2017-04-26T06:43:56.239Z,160
2017-04-26T06:45:09.997Z,165
2017-04-26T06:46:23.597Z,170
2017-04-26T06:47:37.693Z,175
2017-04-26T06:48:52.012Z,175
2017-04-26T06:52:50.329Z,175
2017-04-26T06:54:03.915Z,180
2017-04-26T06:55:17.505Z,180
2017-04-26T06:56:31.710Z,180
2017-04-26T06:57:45.919Z,180
2017-04-26T06:59:00.733Z,180
2017-04-26T07:00:14.508Z,180
2017-04-26T07:01:27.970Z,190
2017-04-26T07:02:41.571Z,195
2017-04-26T07:03:55.939Z,200
2017-04-26T07:05:09.733Z,210
2017-04-26T07:06:23.556Z,220
2017-04-26T07:07:37.261Z,225
2017-04-26T07:08:51.275Z,225
2017-04-26T07:10:04.924Z,230
2017-04-26T07:11:18.896Z,235
2017-04-26T07:13:05.948Z,230
2017-04-26T07:14:19.737Z,230
2017-04-26T07:18:23.931Z,235
2017-04-26T07:19:38.279Z,235
2017-04-26T07:20:52.042Z,235
2017-04-26T07:22:05.623Z,235
2017-04-26T07:23:19.469Z,235
2017-04-26T07:24:32.953Z,245
2017-04-26T07:25:46.628Z,255
2017-04-26T07:27:00.060Z,260
2017-04-26T07:28:13.879Z,265
2017-04-26T07:29:27.350Z,270
2017-04-26T07:30:40.934Z,275
2017-04-26T07:31:54.524Z,280
2017-04-26T07:33:08.055Z,280
2017-04-26T07:34:21.493Z,275
2017-04-26T07:35:35.067Z,265
2017-04-26T07:36:48.870Z,265
2017-04-26T07:38:02.716Z,265
2017-04-26T07:39:16.562Z,270
2017-04-26T07:40:30.810Z,275
2017-04-26T07:41:44.274Z,280
2017-04-26T07:43:11.211Z,280
2017-04-26T07:44:24.853Z,280
2017-04-26T07:45:38.521Z,270
2017-04-26T07:46:52.082Z,265
2017-04-26T07:48:05.667Z,265
2017-04-26T07:49:19.371Z,265
2017-04-26T07:50:34.022Z,260
2017-04-26T07:51:47.445Z,250
2017-04-26T07:53:00.990Z,255
2017-04-26T07:54:14.415Z,255
2017-04-26T07:56:56.599Z,250
2017-04-26T07:58:10.132Z,250
2017-04-26T07:59:24.344Z,245
2017-04-26T08:00:38.205Z,245
2017-04-26T08:01:52.045Z,245
2017-04-26T08:03:05.916Z,250
2017-04-26T08:04:19.544Z,250
2017-04-26T08:05:34.027Z,250
2017-04-26T08:06:47.457Z,250
2017-04-26T08:08:01.365Z,255
2017-04-26T08:09:14.844Z,270
2017-04-26T08:10:28.434Z,280
2017-04-26T08:11:42.253Z,270
2017-04-26T08:12:56.291Z,275
2017-04-26T08:14:09.935Z,280
2017-04-26T08:15:23.601Z,290
2017-04-26T08:16:37.030Z,295
2017-04-26T08:18:00.410Z,305
2017-04-26T08:19:13.823Z,310
2017-04-26T08:20:27.367Z,310
2017-04-26T08:21:41.247Z,310
2017-04-26T08:22:55.078Z,315
2017-04-26T08:24:08.494Z,315
2017-04-26T08:25:22.060Z,315
2017-04-26T08:26:36.418Z,310
2017-04-26T08:27:50.013Z,305
2017-04-26T08:29:04.014Z,305
2017-04-26T08:30:17.537Z,310
2017-04-26T08:31:30.936Z,310
2017-04-26T08:32:44.780Z,310
2017-04-26T08:33:58.260Z,310
2017-04-26T08:35:11.928Z,305
2017-04-26T08:36:26.058Z,310
2017-04-26T08:37:39.579Z,310
2017-04-26T08:38:53.052Z,310
2017-04-26T08:40:06.882Z,310
2017-04-26T08:41:20.285Z,305
2017-04-26T08:42:34.158Z,305
2017-04-26T08:43:47.854Z,310
2017-04-26T08:45:24.990Z,305
2017-04-26T08:46:50.192Z,310
2017-04-26T08:48:03.634Z,305
2017-04-26T08:49:17.466Z,300
2017-04-26T08:50:31.099Z,295
2017-04-26T08:51:44.957Z,295
2017-04-26T08:52:58.652Z,290
2017-04-26T08:54:13.347Z,285
2017-04-26T08:55:26.833Z,285
2017-04-26T08:56:40.701Z,290
2017-04-26T08:57:54.133Z,305
2017-04-26T08:59:07.974Z,305
2017-04-26T09:00:21.468Z,315
2017-04-26T09:01:35.086Z,310
2017-04-26T09:02:48.866Z,320
2017-04-26T09:04:02.635Z,320
2017-04-26T09:05:16.814Z,320
2017-04-26T09:06:30.790Z,325
2017-04-26T09:07:44.366Z,340
2017-04-26T09:08:58.191Z,350
2017-04-26T09:10:11.794Z,345
2017-04-26T09:11:25.620Z,345
2017-04-26T09:12:39.390Z,355
2017-04-26T09:13:53.233Z,345
2017-04-26T09:15:06.675Z,340
2017-04-26T09:16:20.952Z,340
2017-04-26T09:17:35.126Z,335
2017-04-26T09:18:48.960Z,335
2017-04-26T09:20:02.398Z,330
2017-04-26T09:21:16.344Z,325
2017-04-26T09:22:29.764Z,325
2017-04-26T09:23:43.674Z,325
2017-04-26T09:24:57.125Z,320
2017-04-26T09:26:10.807Z,325
2017-04-26T09:27:24.237Z,335
2017-04-26T09:28:37.787Z,335
2017-04-26T09:29:51.896Z,335
2017-04-26T09:31:06.190Z,330
2017-04-26T09:32:19.614Z,325
2017-04-26T09:33:33.211Z,315
2017-04-26T09:34:46.746Z,305
2017-04-26T09:36:00.533Z,300
2017-04-26T09:37:14.434Z,300
2017-04-26T09:38:27.942Z,305
2017-04-26T09:39:41.406Z,310
2017-04-26T09:40:54.960Z,310
2017-04-26T09:42:08.708Z,310
2017-04-26T09:43:22.547Z,315
2017-04-26T09:44:36.618Z,320
2017-04-26T09:45:50.499Z,325
2017-04-26T09:47:04.624Z,325
2017-04-26T09:48:18.489Z,330
2017-04-26T09:49:31.963Z,335
2017-04-26T09:50:45.462Z,330
2017-04-26T09:51:59.023Z,325
2017-04-26T09:53:12.650Z,320
2017-04-26T09:54:26.376Z,320
2017-04-26T09:55:39.923Z,315
2017-04-26T09:56:53.733Z,315
2017-04-26T09:58:07.445Z,310
2017-04-26T09:59:20.888Z,310
2017-04-26T10:00:34.710Z,310
2017-04-26T10:02:33.233Z,315
2017-04-26T10:03:46.976Z,315
2017-04-26T10:05:01.293Z,320
2017-04-26T10:06:15.272Z,325
2017-04-26T10:07:28.706Z,320
2017-04-26T10:08:42.614Z,310
2017-04-26T10:09:56.024Z,310
2017-04-26T10:11:09.555Z,295
2017-04-26T10:12:23.275Z,280
2017-04-26T10:13:37.169Z,265
2017-04-26T10:15:23.175Z,255
2017-04-26T10:16:37.038Z,245
2017-04-26T10:17:50.786Z,240
2017-04-26T10:19:05.101Z,235
2017-04-26T10:20:18.928Z,225
2017-04-26T10:21:32.892Z,230
2017-04-26T10:22:46.482Z,230
2017-04-26T10:24:00.609Z,225
2017-04-26T10:25:14.440Z,235
2017-04-26T10:26:49.064Z,235
2017-04-26T10:29:17.070Z,230
2017-04-26T10:31:03.076Z,220
2017-04-26T10:32:16.651Z,230
2017-04-26T10:33:30.097Z,230
2017-04-26T10:34:45.051Z,220
2017-04-26T10:35:59.087Z,210
2017-04-26T10:37:13.160Z,205
2017-04-26T10:38:26.983Z,195
2017-04-26T10:39:40.592Z,180
2017-04-26T10:40:54.370Z,175
2017-04-26T10:42:08.009Z,170
2017-04-26T10:43:21.572Z,175
2017-04-26T10:44:35.262Z,175
2017-04-26T10:45:48.771Z,170
2017-04-26T10:47:02.622Z,160
2017-04-26T10:48:16.348Z,160
2017-04-26T10:49:30.007Z,160
2017-04-26T10:50:44.106Z,170
2017-04-26T10:51:57.622Z,170
2017-04-26T10:53:11.060Z,170
2017-04-26T10:54:24.556Z,185
2017-04-26T10:55:38.058Z,205
2017-04-26T10:58:24.293Z,215
2017-04-26T10:59:37.869Z,215
2017-04-26T11:00:51.924Z,215
2017-04-26T11:02:05.781Z,210
2017-04-26T11:03:19.455Z,205
2017-04-26T11:04:33.205Z,205
2017-04-26T11:05:47.187Z,210
2017-04-26T11:07:00.578Z,215
2017-04-26T11:08:15.138Z,240
2017-04-26T11:09:28.997Z,245
2017-04-26T11:10:44.611Z,250
2017-04-26T11:11:58.530Z,265
2017-04-26T11:13:12.216Z,275
2017-04-26T11:14:26.079Z,265
2017-04-26T11:15:40.044Z,285
2017-04-26T11:16:55.258Z,285
2017-04-26T11:18:09.535Z,275
2017-04-26T11:19:22.995Z,265
2017-04-26T11:20:37.287Z,265
2017-04-26T11:21:50.780Z,265
2017-04-26T11:23:06.239Z,265
2017-04-26T11:24:20.014Z,255
2017-04-26T11:25:33.752Z,245
2017-04-26T11:26:47.722Z,245
2017-04-26T11:28:01.664Z,240
2017-04-26T11:29:15.572Z,235
2017-04-26T11:30:29.682Z,230
2017-04-26T11:31:43.949Z,230
2017-04-26T11:32:57.506Z,235
2017-04-26T11:34:11.278Z,235
2017-04-26T11:35:25.601Z,240
2017-04-26T11:36:40.308Z,240
2017-04-26T11:37:54.750Z,245
2017-04-26T11:39:08.955Z,250
2017-04-26T11:40:22.868Z,255
2017-04-26T11:41:36.975Z,260
2017-04-26T11:42:50.883Z,260
2017-04-26T11:44:04.883Z,265
2017-04-26T11:45:18.673Z,270
2017-04-26T11:46:32.613Z,270
2017-04-26T11:47:46.945Z,275
2017-04-26T11:49:00.664Z,265
2017-04-26T11:51:15.981Z,260
2017-04-26T11:53:12.578Z,250
2017-04-26T11:54:27.544Z,240
2017-04-26T11:55:41.571Z,230
2017-04-26T11:56:57.081Z,225
2017-04-26T11:58:11.551Z,230
2017-04-26T11:59:26.391Z,235
2017-04-26T12:00:40.392Z,245
2017-04-26T12:01:54.860Z,250
2017-04-26T12:03:09.311Z,250
2017-04-26T12:04:24.025Z,245
2017-04-26T12:05:38.746Z,250
2017-04-26T12:06:53.231Z,255
2017-04-26T12:08:07.256Z,255
2017-04-26T12:09:23.168Z,255
2017-04-26T12:10:37.124Z,245
2017-04-26T12:11:51.961Z,240
2017-04-26T12:13:07.440Z,240
2017-04-26T12:14:21.987Z,255
2017-04-26T12:15:36.307Z,265
2017-04-26T12:17:06.847Z,280
2017-04-26T12:18:22.279Z,280
2017-04-26T12:19:37.696Z,280
2017-04-26T12:20:52.263Z,270
2017-04-26T12:22:07.046Z,275
2017-04-26T12:23:21.204Z,290
2017-04-26T12:24:35.900Z,285
2017-04-26T12:26:00.679Z,280
2017-04-26T12:27:15.419Z,270
2017-04-26T12:28:29.696Z,255
2017-04-26T12:29:44.346Z,255
2017-04-26T12:30:59.302Z,250
2017-04-26T12:32:13.598Z,250
2017-04-26T12:33:28.916Z,250
2017-04-26T12:34:42.888Z,245
2017-04-26T12:35:56.988Z,245
2017-04-26T12:37:11.225Z,240
2017-04-26T12:38:25.872Z,240
2017-04-26T12:39:40.762Z,245
2017-04-26T12:40:55.701Z,245
2017-04-26T12:42:10.545Z,245
2017-04-26T12:43:26.169Z,240
2017-04-26T12:44:40.918Z,230
2017-04-26T12:45:55.768Z,220
2017-04-26T12:47:10.273Z,215
2017-04-26T12:48:25.276Z,215
2017-04-26T12:49:39.674Z,220
2017-04-26T12:50:55.280Z,220
2017-04-26T12:52:09.583Z,220
2017-04-26T12:53:23.772Z,220
2017-04-26T12:54:38.152Z,215
2017-04-26T12:55:53.605Z,205
2017-04-26T12:57:07.984Z,205
2017-04-26T12:58:22.963Z,200
2017-04-26T12:59:37.185Z,200
2017-04-26T13:00:53.145Z,205
2017-04-26T13:02:07.990Z,215
2017-04-26T13:03:22.686Z,210
2017-04-26T13:04:37.639Z,210
2017-04-26T13:05:53.498Z,215
2017-04-26T13:07:07.866Z,220
2017-04-26T13:08:23.410Z,230
2017-04-26T13:09:38.669Z,225
2017-04-26T13:10:53.330Z,235
2017-04-26T13:12:07.415Z,230
2017-04-26T13:13:22.336Z,240
2017-04-26T13:14:37.189Z,230
2017-04-26T13:15:52.453Z,210
2017-04-26T13:17:06.749Z,210
2017-04-26T13:18:21.325Z,220
2017-04-26T13:19:36.129Z,230
2017-04-26T13:20:51.254Z,245
2017-04-26T13:22:05.227Z,255
2017-04-26T13:23:20.196Z,250
2017-04-26T13:24:34.939Z,250
2017-04-26T13:25:50.541Z,250
2017-04-26T13:27:06.360Z,250
2017-04-26T13:28:20.783Z,260
2017-04-26T13:29:35.728Z,265
2017-04-26T13:30:52.340Z,260
2017-04-26T13:32:07.557Z,260
2017-04-26T13:34:09.370Z,250
2017-04-26T13:35:26.010Z,245
2017-04-26T13:36:40.607Z,230
2017-04-26T13:37:55.140Z,215
2017-04-26T13:39:09.724Z,200
2017-04-26T13:40:39.042Z,175
2017-04-26T13:41:54.249Z,150
2017-04-26T13:43:08.576Z,130
2017-04-26T13:44:23.325Z,110
2017-04-26T13:45:39.728Z,100
2017-04-26T13:46:54.770Z,90
2017-04-26T13:48:10.243Z,85
2017-04-26T13:49:25.719Z,80
2017-04-26T13:50:40.903Z,75
2017-04-26T13:52:11.942Z,70
2017-04-26T13:53:27.139Z,70
2017-04-26T13:54:41.464Z,65
2017-04-26T13:55:56.107Z,65
2017-04-26T13:57:10.293Z,65
2017-04-26T13:58:26.181Z,65
2017-04-26T13:59:40.946Z,65
2017-04-26T14:00:55.924Z,65
2017-04-26T14:02:10.650Z,65
2017-04-26T14:03:25.188Z,65
2017-04-26T14:04:39.530Z,70
2017-04-26T14:05:55.393Z,70
2017-04-26T14:07:09.801Z,75
2017-04-26T14:08:25.479Z,75
2017-04-26T14:09:40.157Z,80
2017-04-26T14:10:55.941Z,80
2017-04-26T14:12:11.440Z,80
2017-04-26T14:13:26.370Z,85
2017-04-26T14:14:41.752Z,85
2017-04-26T14:15:56.702Z,85
2017-04-26T14:17:11.288Z,85
2017-04-26T14:18:27.031Z,85
2017-04-26T14:19:41.017Z,85
2017-04-26T14:20:55.650Z,85
2017-04-26T14:22:09.674Z,85
2017-04-26T14:23:24.372Z,85
2017-04-26T14:24:39.210Z,90
2017-04-26T14:25:54.804Z,90
2017-04-26T14:27:09.244Z,85
2017-04-26T14:28:23.489Z,85
2017-04-26T14:29:37.786Z,85
2017-04-26T14:30:52.278Z,90
2017-04-26T14:32:06.827Z,95
2017-04-26T14:33:22.597Z,100
2017-04-26T14:34:36.786Z,105
2017-04-26T14:35:53.048Z,110
2017-04-26T14:37:07.474Z,125
2017-04-26T14:38:22.284Z,120
2017-04-26T14:39:37.630Z,125
2017-04-26T14:40:52.418Z,135
2017-04-26T14:42:06.926Z,140
2017-04-26T14:43:21.574Z,145
2017-04-26T14:44:35.684Z,150
2017-04-26T14:46:09.963Z,160
2017-04-26T14:47:24.543Z,165
2017-04-26T14:48:39.076Z,175
2017-04-26T14:49:53.680Z,190
2017-04-26T14:51:23.146Z,205
2017-04-26T14:52:38.362Z,215
2017-04-26T14:53:54.534Z,210
2017-04-26T14:55:16.659Z,195
2017-04-26T14:56:31.366Z,190
2017-04-26T14:57:46.302Z,180
2017-04-26T14:59:00.261Z,180
2017-04-26T15:00:14.632Z,180
2017-04-26T15:01:29.309Z,185
2017-04-26T15:02:44.091Z,190
2017-04-26T15:03:58.506Z,180
2017-04-26T15:05:13.375Z,175
2017-04-26T15:06:28.291Z,170
2017-04-26T15:07:42.757Z,170
2017-04-26T15:08:58.143Z,170
2017-04-26T15:10:12.686Z,170
2017-04-26T15:11:28.281Z,170
2017-04-26T15:12:43.546Z,165
2017-04-26T15:13:58.313Z,160
2017-04-26T15:15:13.695Z,165
2017-04-26T15:16:28.867Z,170
2017-04-26T15:17:44.451Z,165
2017-04-26T15:18:59.423Z,165
2017-04-26T15:20:14.542Z,160
2017-04-26T15:21:29.131Z,155
2017-04-26T15:22:44.290Z,150
2017-04-26T15:23:58.653Z,140
2017-04-26T15:25:13.947Z,130
2017-04-26T15:26:28.407Z,120
2017-04-26T15:27:42.505Z,110
2017-04-26T15:28:56.469Z,100
2017-04-26T15:30:12.269Z,95
2017-04-26T15:31:26.470Z,90
2017-04-26T15:32:41.367Z,80
2017-04-26T15:33:55.336Z,70
2017-04-26T15:35:09.919Z,60
2017-04-26T15:36:24.736Z,60
2017-04-26T15:37:39.344Z,60
2017-04-26T15:38:54.389Z,65
2017-04-26T15:40:09.838Z,65
2017-04-26T15:41:24.616Z,65
2017-04-26T15:42:41.251Z,70
2017-04-26T15:44:03.132Z,75
2017-04-26T15:45:19.282Z,75
2017-04-26T15:46:33.544Z,80
2017-04-26T15:47:49.339Z,80
2017-04-26T15:49:04.561Z,80
2017-04-26T15:50:20.130Z,80
2017-04-26T15:51:34.739Z,75
2017-04-26T15:52:50.506Z,70
2017-04-26T15:54:05.592Z,65
2017-04-26T15:55:21.092Z,65
2017-04-26T15:56:37.505Z,60
2017-04-26T15:57:53.040Z,60
2017-04-26T15:59:07.872Z,60
2017-04-26T16:00:22.483Z,60
2017-04-26T16:01:37.886Z,60
2017-04-26T16:03:41.488Z,55
2017-04-26T16:04:56.932Z,50
2017-04-26T16:06:11.338Z,45
2017-04-26T16:07:26.345Z,45
2017-04-26T16:08:40.680Z,40
2017-04-26T16:09:56.582Z,40
2017-04-26T16:11:11.497Z,40
2017-04-26T16:12:26.316Z,40
2017-04-26T16:13:41.387Z,40
2017-04-26T16:14:56.285Z,40
2017-04-26T16:16:10.830Z,40
2017-04-26T16:17:47.155Z,40
2017-04-26T16:19:31.037Z,45
2017-04-26T16:20:46.439Z,50
2017-04-26T16:22:02.115Z,60
2017-04-26T16:23:17.376Z,65
2017-04-26T16:24:32.590Z,70
2017-04-26T16:25:48.154Z,75
2017-04-26T16:27:03.673Z,75
2017-04-26T16:28:18.208Z,75
2017-04-26T16:29:33.439Z,75
2017-04-26T16:30:49.245Z,80
2017-04-26T16:32:04.170Z,80
2017-04-26T16:33:19.129Z,80
2017-04-26T16:34:33.965Z,75
2017-04-26T16:35:49.374Z,75
2017-04-26T16:37:03.485Z,75
2017-04-26T16:38:18.754Z,75
2017-04-26T16:39:33.637Z,80
2017-04-26T16:40:49.015Z,80
2017-04-26T16:42:03.725Z,85
2017-04-26T16:43:19.550Z,90
2017-04-26T16:44:34.495Z,90
2017-04-26T16:45:50.650Z,85
2017-04-26T16:47:05.179Z,80
2017-04-26T16:48:20.003Z,85
2017-04-26T16:49:34.088Z,85
2017-04-26T16:50:49.031Z,80
2017-04-26T16:52:03.303Z,80
2017-04-26T16:53:19.013Z,80
2017-04-26T16:54:34.877Z,80
2017-04-26T16:55:49.569Z,75
2017-04-26T16:57:04.049Z,75
2017-04-26T16:58:19.337Z,75
2017-04-26T16:59:34.824Z,70
2017-04-26T17:00:50.997Z,70
2017-04-26T17:02:05.489Z,70
2017-04-26T17:03:20.347Z,65
2017-04-26T17:04:35.778Z,65
2017-04-26T17:05:50.559Z,65
2017-04-26T17:07:05.027Z,65
2017-04-26T17:08:19.534Z,65
2017-04-26T17:09:35.421Z,60
2017-04-26T17:10:50.653Z,60
2017-04-26T17:12:06.583Z,55
2017-04-26T17:13:21.634Z,50
2017-04-26T17:14:37.876Z,50
2017-04-26T17:15:52.938Z,45
2017-04-26T17:17:07.870Z,45
2017-04-26T17:18:23.369Z,45
2017-04-26T17:19:37.770Z,45
2017-04-26T17:20:53.234Z,45
2017-04-26T17:22:08.352Z,45
2017-04-26T17:23:23.185Z,45
2017-04-26T17:24:37.916Z,45
2017-04-26T17:25:52.052Z,45
2017-04-26T17:27:07.000Z,45
2017-04-26T17:28:21.606Z,40
2017-04-26T17:29:36.448Z,40
2017-04-26T17:30:51.717Z,40
2017-04-26T17:32:07.327Z,45
2017-04-26T17:33:22.664Z,45
2017-04-26T17:34:36.975Z,45
2017-04-26T17:35:51.153Z,50
2017-04-26T17:38:09.229Z,50
2017-04-26T17:39:24.021Z,55
2017-04-26T17:40:38.651Z,55
2017-04-26T17:41:53.155Z,55
2017-04-26T17:43:07.994Z,55
2017-04-26T17:44:22.177Z,50
2017-04-26T17:45:36.961Z,50
2017-04-26T17:46:51.976Z,50
2017-04-26T17:48:07.008Z,45
2017-04-26T17:49:22.339Z,40
2017-04-26T17:50:37.617Z,40
2017-04-26T17:51:51.967Z,35